createdAt,value
2022-10-06T00:01:18.933Z,11.60
2022-10-06T00:03:47.571Z,11.60
2022-10-06T00:06:17.856Z,11.60
2022-10-06T00:08:46.792Z,11.60
2022-10-06T00:11:15.571Z,11.50
2022-10-06T00:13:43.897Z,11.50
2022-10-06T00:16:17.706Z,11.50
2022-10-06T00:18:45.950Z,11.50
2022-10-06T00:21:13.926Z,11.50
2022-10-06T00:23:42.020Z,11.50
2022-10-06T00:26:17.643Z,11.40
2022-10-06T00:28:49.271Z,11.40
2022-10-06T00:31:19.734Z,11.40
2022-10-06T00:33:49.597Z,11.40
2022-10-06T00:36:17.791Z,11.40
2022-10-06T00:38:46.022Z,11.40
2022-10-06T00:41:15.795Z,11.40
2022-10-06T00:43:57.088Z,11.40
2022-10-06T00:46:48.203Z,11.40
2022-10-06T00:49:21.612Z,11.30
2022-10-06T00:51:58.604Z,11.30
2022-10-06T00:54:27.790Z,11.30
2022-10-06T00:56:56.738Z,11.30
2022-10-06T00:59:24.444Z,11.30
2022-10-06T01:02:00.262Z,11.30
2022-10-06T01:04:31.481Z,11.30
2022-10-06T01:07:00.695Z,11.30
2022-10-06T01:09:30.290Z,11.20
2022-10-06T01:12:02.073Z,11.20
2022-10-06T01:14:30.578Z,11.20
2022-10-06T01:17:13.717Z,11.20
2022-10-06T01:19:51.349Z,11.20
2022-10-06T01:22:33.136Z,11.20
2022-10-06T01:25:01.940Z,11.20
2022-10-06T01:27:31.941Z,11.20
2022-10-06T01:30:00.650Z,11.10
2022-10-06T01:32:34.059Z,11.10
2022-10-06T01:35:01.947Z,11.10
2022-10-06T01:37:30.541Z,11.10
2022-10-06T01:39:58.382Z,11.10
2022-10-06T01:42:26.202Z,11.10
2022-10-06T01:44:54.286Z,11.10
2022-10-06T01:47:22.052Z,11.10
2022-10-06T01:49:49.745Z,11.10
2022-10-06T01:52:17.981Z,11.10
2022-10-06T01:54:45.801Z,11.00
2022-10-06T01:57:13.661Z,11.00
2022-10-06T01:59:42.223Z,11.00
2022-10-06T02:02:10.217Z,11.00
2022-10-06T02:04:37.963Z,11.10
2022-10-06T02:07:06.183Z,11.00
2022-10-06T02:09:42.300Z,11.00
2022-10-06T02:12:10.883Z,11.00
2022-10-06T02:14:42.668Z,11.00
2022-10-06T02:17:10.874Z,11.00
2022-10-06T02:19:39.477Z,11.00
2022-10-06T02:22:07.264Z,11.00
2022-10-06T02:24:34.998Z,11.00
2022-10-06T02:27:03.125Z,11.00
2022-10-06T02:29:31.121Z,11.00
2022-10-06T02:31:58.924Z,10.90
2022-10-06T02:34:27.777Z,11.00
2022-10-06T02:36:55.699Z,11.00
2022-10-06T02:39:23.642Z,10.90
2022-10-06T02:41:54.967Z,10.90
2022-10-06T02:44:23.601Z,10.90
2022-10-06T02:46:54.019Z,11.00
2022-10-06T02:49:22.028Z,10.90
2022-10-06T02:51:51.896Z,10.90
2022-10-06T02:54:20.094Z,10.90
2022-10-06T02:56:50.750Z,10.90
2022-10-06T02:59:18.742Z,10.90
2022-10-06T03:01:47.011Z,10.90
2022-10-06T03:04:17.795Z,10.80
2022-10-06T03:06:45.999Z,10.80
2022-10-06T03:09:20.762Z,10.80
2022-10-06T03:11:48.893Z,10.80
2022-10-06T03:14:23.117Z,10.80
2022-10-06T03:16:57.119Z,10.80
2022-10-06T03:19:27.792Z,10.80
2022-10-06T03:21:56.042Z,10.80
2022-10-06T03:24:32.942Z,10.80
2022-10-06T03:27:01.031Z,10.80
2022-10-06T03:29:31.355Z,10.80
2022-10-06T03:32:00.277Z,10.80
2022-10-06T03:34:29.067Z,10.80
2022-10-06T03:36:59.012Z,10.70
2022-10-06T03:39:28.255Z,10.80
2022-10-06T03:41:55.969Z,10.70
2022-10-06T03:44:23.920Z,10.80
2022-10-06T03:46:52.895Z,10.80
2022-10-06T03:49:20.784Z,10.80
2022-10-06T03:51:48.876Z,10.80
2022-10-06T03:54:22.052Z,10.80
2022-10-06T03:56:51.729Z,10.80
2022-10-06T03:59:20.544Z,10.70
2022-10-06T04:01:49.717Z,10.70
2022-10-06T04:04:21.861Z,10.70
2022-10-06T04:06:53.568Z,10.70
2022-10-06T04:09:22.688Z,10.70
2022-10-06T04:11:52.771Z,10.70
2022-10-06T04:14:21.679Z,10.70
2022-10-06T04:16:50.768Z,10.70
2022-10-06T04:19:25.939Z,10.70
2022-10-06T04:21:56.542Z,10.70
2022-10-06T04:24:26.195Z,10.70
2022-10-06T04:27:17.561Z,10.70
2022-10-06T04:29:51.088Z,10.70
2022-10-06T04:32:19.201Z,10.70
2022-10-06T04:34:47.096Z,10.70
2022-10-06T04:37:15.454Z,10.70
2022-10-06T04:39:45.066Z,10.70
2022-10-06T04:42:13.669Z,10.70
2022-10-06T04:44:41.416Z,10.70
2022-10-06T04:47:09.489Z,10.70
2022-10-06T04:49:37.253Z,10.70
2022-10-06T04:52:05.858Z,10.60
2022-10-06T04:54:36.474Z,10.60
2022-10-06T04:57:06.160Z,10.60
2022-10-06T04:59:53.100Z,10.70
2022-10-06T05:02:21.233Z,10.70
2022-10-06T05:04:53.025Z,10.70
2022-10-06T05:07:23.737Z,10.70
2022-10-06T05:09:51.715Z,10.70
2022-10-06T05:12:19.571Z,10.80
2022-10-06T05:14:48.471Z,10.80
2022-10-06T05:17:16.815Z,10.90
2022-10-06T05:19:45.673Z,10.90
2022-10-06T05:22:13.468Z,11.00
2022-10-06T05:24:41.706Z,11.00
2022-10-06T05:27:09.498Z,11.10
2022-10-06T05:29:37.383Z,11.20
2022-10-06T05:32:11.729Z,11.20
2022-10-06T05:34:39.579Z,11.30
2022-10-06T05:37:07.491Z,11.30
2022-10-06T05:39:36.407Z,11.40
2022-10-06T05:42:06.535Z,11.40
2022-10-06T05:44:34.730Z,11.50
2022-10-06T05:47:07.778Z,11.50
2022-10-06T05:49:36.275Z,11.60
2022-10-06T05:52:05.419Z,11.60
2022-10-06T05:54:35.277Z,11.70
2022-10-06T05:57:03.589Z,11.70
2022-10-06T05:59:33.695Z,11.70
2022-10-06T06:02:03.290Z,11.80
2022-10-06T06:04:39.214Z,11.80
2022-10-06T06:07:07.198Z,11.90
2022-10-06T06:09:34.918Z,11.90
2022-10-06T06:12:05.223Z,11.90
2022-10-06T06:15:05.664Z,12.00
2022-10-06T06:17:41.729Z,12.00
2022-10-06T06:20:10.109Z,12.10
2022-10-06T06:22:38.466Z,12.10
2022-10-06T06:25:08.203Z,12.20
2022-10-06T06:27:36.021Z,12.20
2022-10-06T06:30:06.363Z,12.30
2022-10-06T06:32:35.195Z,12.40
2022-10-06T06:35:03.754Z,12.40
2022-10-06T06:37:33.721Z,12.50
2022-10-06T06:40:02.861Z,12.50
2022-10-06T06:42:36.365Z,12.60
2022-10-06T06:45:24.071Z,12.60
2022-10-06T06:48:16.154Z,12.70
2022-10-06T06:50:46.018Z,12.70
2022-10-06T06:53:16.200Z,12.70
2022-10-06T06:55:51.246Z,12.80
2022-10-06T06:58:22.002Z,12.90
2022-10-06T07:00:51.270Z,12.90
2022-10-06T07:03:52.167Z,13.00
2022-10-06T07:06:16.513Z,13.10
2022-10-06T07:08:47.901Z,13.20
2022-10-06T07:11:20.594Z,13.40
2022-10-06T07:13:53.758Z,13.50
2022-10-06T07:16:41.628Z,13.60
2022-10-06T07:19:29.901Z,13.70
2022-10-06T07:22:28.068Z,13.70
2022-10-06T07:25:07.550Z,13.90
2022-10-06T07:27:46.960Z,13.90
2022-10-06T07:30:23.651Z,14.00
2022-10-06T07:32:56.536Z,14.00
2022-10-06T07:35:26.227Z,14.10
2022-10-06T07:37:54.425Z,14.20
2022-10-06T07:40:24.767Z,14.20
2022-10-06T07:42:52.562Z,14.30
2022-10-06T07:45:39.812Z,14.40
2022-10-06T07:48:23.590Z,14.40
2022-10-06T07:50:58.557Z,14.40
2022-10-06T07:53:29.876Z,14.50
2022-10-06T07:56:08.851Z,14.50
2022-10-06T07:58:44.966Z,14.50
2022-10-06T08:01:14.495Z,14.50
2022-10-06T08:03:44.285Z,14.50
2022-10-06T08:06:14.443Z,14.60
2022-10-06T08:08:43.930Z,14.60
2022-10-06T08:11:15.083Z,14.60
2022-10-06T08:13:45.232Z,14.60
2022-10-06T08:16:16.780Z,14.70
2022-10-06T08:18:55.855Z,14.80
2022-10-06T08:21:32.239Z,14.80
2022-10-06T08:24:01.102Z,14.90
2022-10-06T08:26:30.292Z,15.00
2022-10-06T08:29:03.331Z,15.10
2022-10-06T08:31:32.596Z,15.20
2022-10-06T08:34:01.623Z,15.30
2022-10-06T08:36:31.963Z,15.30
2022-10-06T08:39:01.530Z,15.40
2022-10-06T08:41:33.066Z,15.50
2022-10-06T08:44:27.053Z,15.50
2022-10-06T08:47:05.702Z,15.60
2022-10-06T08:49:39.331Z,15.60
2022-10-06T08:52:22.661Z,15.70
2022-10-06T08:55:11.960Z,15.70
2022-10-06T08:58:00.868Z,15.70
2022-10-06T09:00:33.966Z,15.60
2022-10-06T09:03:02.645Z,15.70
2022-10-06T09:05:32.267Z,15.70
2022-10-06T09:08:16.458Z,15.70
2022-10-06T09:11:02.777Z,15.80
2022-10-06T09:14:15.483Z,15.90
2022-10-06T09:16:52.242Z,16.00
2022-10-06T09:19:33.488Z,16.00
2022-10-06T09:22:05.017Z,16.00
2022-10-06T09:24:35.494Z,16.00
2022-10-06T09:27:18.685Z,16.10
2022-10-06T09:29:48.889Z,16.20
2022-10-06T09:32:18.884Z,16.20
2022-10-06T09:34:59.840Z,16.30
2022-10-06T09:37:28.120Z,16.30
2022-10-06T09:39:56.546Z,16.40
2022-10-06T09:42:29.825Z,16.50
2022-10-06T09:44:59.327Z,16.50
2022-10-06T09:47:32.433Z,16.50
2022-10-06T09:50:22.085Z,16.60
2022-10-06T09:52:49.880Z,16.70
2022-10-06T09:55:19.730Z,16.70
2022-10-06T09:57:52.830Z,16.80
2022-10-06T10:00:40.870Z,16.80
2022-10-06T10:03:13.702Z,16.90
2022-10-06T10:05:49.430Z,16.90
2022-10-06T10:08:25.296Z,17.00
2022-10-06T10:11:28.688Z,17.00
2022-10-06T10:13:58.092Z,17.10
2022-10-06T10:16:34.988Z,17.10
2022-10-06T10:19:05.883Z,17.20
2022-10-06T10:21:35.707Z,17.30
2022-10-06T10:24:07.632Z,17.30
2022-10-06T10:26:46.145Z,17.50
2022-10-06T10:29:22.196Z,17.60
2022-10-06T10:32:35.284Z,17.70
2022-10-06T10:35:21.407Z,17.80
2022-10-06T10:38:14.582Z,17.90
2022-10-06T10:40:55.502Z,18.10
2022-10-06T10:43:58.576Z,18.20
2022-10-06T10:46:39.335Z,18.20
2022-10-06T10:49:27.958Z,18.30
2022-10-06T10:52:11.510Z,18.30
2022-10-06T10:54:48.181Z,18.40
2022-10-06T10:57:19.531Z,18.40
2022-10-06T10:59:59.371Z,18.50
2022-10-06T11:02:28.443Z,18.50
2022-10-06T11:05:12.546Z,18.50
2022-10-06T11:07:53.589Z,18.60
2022-10-06T11:10:28.869Z,18.60
2022-10-06T11:13:18.268Z,18.70
2022-10-06T11:15:55.439Z,18.60
2022-10-06T11:18:54.990Z,18.70
2022-10-06T11:21:41.741Z,18.60
2022-10-06T11:24:44.377Z,18.50
2022-10-06T11:27:17.259Z,18.50
2022-10-06T11:30:06.390Z,18.40
2022-10-06T11:32:55.228Z,18.50
2022-10-06T11:35:27.224Z,18.50
2022-10-06T11:38:14.798Z,18.50
2022-10-06T11:41:10.155Z,18.50
2022-10-06T11:44:00.654Z,18.60
2022-10-06T11:46:32.532Z,18.60
2022-10-06T11:49:28.693Z,18.60
2022-10-06T11:52:11.703Z,18.70
2022-10-06T11:54:52.781Z,18.80
2022-10-06T11:57:30.519Z,18.80
2022-10-06T12:00:20.620Z,18.80
2022-10-06T12:02:49.018Z,18.80
2022-10-06T12:08:09.989Z,18.70
2022-10-06T12:10:49.354Z,18.60
2022-10-06T12:20:06.458Z,18.40
2022-10-06T12:23:00.977Z,18.50
2022-10-06T12:25:42.728Z,18.60
2022-10-06T12:28:36.057Z,18.60
2022-10-06T12:31:24.795Z,18.60
2022-10-06T12:33:52.915Z,18.60
2022-10-06T12:36:25.849Z,18.60
2022-10-06T12:39:05.141Z,18.60
2022-10-06T12:41:54.790Z,18.60
2022-10-06T12:44:27.749Z,18.60
2022-10-06T12:46:59.355Z,18.60
2022-10-06T12:49:37.119Z,18.70
2022-10-06T12:52:18.859Z,18.70
2022-10-06T12:55:07.083Z,18.80
2022-10-06T12:57:52.297Z,18.80
2022-10-06T13:00:40.358Z,18.80
2022-10-06T13:03:17.812Z,18.80
2022-10-06T13:06:02.662Z,18.80
2022-10-06T13:08:32.804Z,18.90
2022-10-06T13:11:21.865Z,18.80
2022-10-06T13:13:54.632Z,18.70
2022-10-06T13:16:29.239Z,18.60
2022-10-06T13:18:59.249Z,18.60
2022-10-06T13:21:30.147Z,18.60
2022-10-06T13:23:57.995Z,18.60
2022-10-06T13:26:35.002Z,18.60
2022-10-06T13:29:03.298Z,18.60
2022-10-06T13:31:34.874Z,18.60
2022-10-06T13:34:05.389Z,18.60
2022-10-06T13:36:38.907Z,18.70
2022-10-06T13:39:14.776Z,18.60
2022-10-06T13:41:51.760Z,18.60
2022-10-06T13:44:19.485Z,18.50
2022-10-06T13:46:54.412Z,18.40
2022-10-06T13:49:30.796Z,18.40
2022-10-06T13:52:03.721Z,18.30
2022-10-06T13:54:44.761Z,18.30
2022-10-06T13:57:51.933Z,18.30
2022-10-06T14:00:25.668Z,18.20
2022-10-06T14:02:56.302Z,18.10
2022-10-06T14:05:27.159Z,18.10
2022-10-06T14:07:58.908Z,18.00
2022-10-06T14:10:46.544Z,18.00
2022-10-06T14:13:31.184Z,17.90
2022-10-06T14:16:18.641Z,17.80
2022-10-06T14:19:00.414Z,17.80
2022-10-06T14:21:28.162Z,17.70
2022-10-06T14:24:01.854Z,17.70
2022-10-06T14:26:34.578Z,17.60
2022-10-06T14:29:02.608Z,17.60
2022-10-06T14:31:34.258Z,17.50
2022-10-06T14:34:03.552Z,17.50
2022-10-06T14:36:37.392Z,17.50
2022-10-06T14:39:07.418Z,17.50
2022-10-06T14:41:35.460Z,17.50
2022-10-06T14:44:09.943Z,17.40
2022-10-06T14:46:39.472Z,17.40
2022-10-06T14:49:08.693Z,17.30
2022-10-06T14:51:38.171Z,17.30
2022-10-06T14:54:07.719Z,17.30
2022-10-06T14:56:38.039Z,17.30
2022-10-06T14:59:08.043Z,17.20
2022-10-06T15:01:38.280Z,17.20
2022-10-06T15:04:09.371Z,17.10
2022-10-06T15:06:56.744Z,17.10
2022-10-06T15:09:24.543Z,17.10
2022-10-06T15:11:53.963Z,17.00
2022-10-06T15:14:25.465Z,17.00
2022-10-06T15:17:00.496Z,17.00
2022-10-06T15:19:28.297Z,16.90
2022-10-06T15:21:56.452Z,16.90
2022-10-06T15:24:25.561Z,16.90
2022-10-06T15:27:11.666Z,16.80
2022-10-06T15:29:39.738Z,16.80
2022-10-06T15:32:07.544Z,16.80
2022-10-06T15:34:37.925Z,16.70
2022-10-06T15:37:06.933Z,16.70
2022-10-06T15:39:38.072Z,16.60
2022-10-06T15:42:06.962Z,16.60
2022-10-06T15:44:35.279Z,16.60
2022-10-06T15:47:05.552Z,16.50
2022-10-06T15:49:38.349Z,16.40
2022-10-06T15:52:06.738Z,16.40
2022-10-06T15:54:46.076Z,16.40
2022-10-06T15:57:20.707Z,16.30
2022-10-06T15:59:52.134Z,16.20
2022-10-06T16:02:21.175Z,16.20
2022-10-06T16:05:17.558Z,16.20
2022-10-06T16:07:45.401Z,16.10
2022-10-06T16:10:13.798Z,16.00
2022-10-06T16:12:41.549Z,16.00
2022-10-06T16:15:09.596Z,15.90
2022-10-06T16:17:37.645Z,15.90
2022-10-06T16:20:05.711Z,15.90
2022-10-06T16:22:33.526Z,15.80
2022-10-06T16:25:01.593Z,15.70
2022-10-06T16:27:33.324Z,15.70
2022-10-06T16:30:04.193Z,15.70
2022-10-06T16:32:34.443Z,15.60
2022-10-06T16:35:02.517Z,15.60
2022-10-06T16:37:32.756Z,15.50
2022-10-06T16:40:00.465Z,15.50
2022-10-06T16:42:29.132Z,15.40
2022-10-06T16:44:59.070Z,15.40
2022-10-06T16:47:29.318Z,15.30
2022-10-06T16:49:57.493Z,15.20
2022-10-06T16:52:25.427Z,15.20
2022-10-06T16:54:53.262Z,15.10
2022-10-06T16:57:21.331Z,15.10
2022-10-06T16:59:49.029Z,15.10
2022-10-06T17:02:17.261Z,15.00
2022-10-06T17:04:45.406Z,15.00
2022-10-06T17:07:17.569Z,14.90
2022-10-06T17:10:15.402Z,14.90
2022-10-06T17:12:36.128Z,14.90
2022-10-06T17:15:04.534Z,14.80
2022-10-06T17:17:32.308Z,14.80
2022-10-06T17:20:00.335Z,14.80
2022-10-06T17:22:28.119Z,14.70
2022-10-06T17:24:55.871Z,14.70
2022-10-06T17:27:28.841Z,14.70
2022-10-06T17:29:56.633Z,14.60
2022-10-06T17:32:26.502Z,14.60
2022-10-06T17:34:57.085Z,14.60
2022-10-06T17:37:24.837Z,14.50
2022-10-06T17:39:55.106Z,14.50
2022-10-06T17:42:23.127Z,14.40
2022-10-06T17:44:53.188Z,14.40
2022-10-06T17:47:20.910Z,14.40
2022-10-06T17:49:50.979Z,14.40
2022-10-06T17:52:24.245Z,14.40
2022-10-06T17:54:54.593Z,14.30
2022-10-06T17:57:22.353Z,14.20
2022-10-06T17:59:53.056Z,14.20
2022-10-06T18:02:23.213Z,14.20
2022-10-06T18:04:52.664Z,14.20
2022-10-06T18:07:21.049Z,14.10
2022-10-06T18:10:12.136Z,14.10
2022-10-06T18:12:40.362Z,14.00
2022-10-06T18:15:10.234Z,14.00
2022-10-06T18:17:38.270Z,14.00
2022-10-06T18:20:06.605Z,13.90
2022-10-06T18:22:34.413Z,13.80
2022-10-06T18:25:04.643Z,13.80
2022-10-06T18:27:33.512Z,13.70
2022-10-06T18:30:01.284Z,13.70
2022-10-06T18:38:07.694Z,13.60
2022-10-06T18:40:35.481Z,13.50
2022-10-06T18:43:03.258Z,13.50
2022-10-06T18:45:49.526Z,13.50
2022-10-06T18:48:35.763Z,13.40
2022-10-06T18:51:03.918Z,13.40
2022-10-06T18:53:36.503Z,13.40
2022-10-06T18:56:07.410Z,13.40
2022-10-06T18:58:40.142Z,13.30
2022-10-06T19:01:10.849Z,13.30
2022-10-06T19:03:41.296Z,13.30
2022-10-06T19:06:09.260Z,13.20
2022-10-06T19:08:40.486Z,13.20
2022-10-06T19:11:26.934Z,13.20
2022-10-06T19:13:57.714Z,13.10
2022-10-06T19:16:28.275Z,13.10
2022-10-06T19:18:56.233Z,13.10
2022-10-06T19:21:24.908Z,13.00
2022-10-06T19:23:52.938Z,13.00
2022-10-06T19:26:22.797Z,13.00
2022-10-06T19:28:53.649Z,13.00
2022-10-06T19:31:22.077Z,12.90
2022-10-06T19:33:54.514Z,12.90
2022-10-06T19:36:22.327Z,12.90
2022-10-06T19:38:50.615Z,12.80
2022-10-06T19:41:37.013Z,12.80
2022-10-06T19:44:05.265Z,12.80
2022-10-06T19:46:33.263Z,12.70
2022-10-06T19:49:05.869Z,12.70
2022-10-06T19:51:34.588Z,12.70
2022-10-06T19:54:03.860Z,12.70
2022-10-06T19:56:33.423Z,12.70
2022-10-06T19:59:02.126Z,12.70
2022-10-06T20:01:31.401Z,12.60
2022-10-06T20:04:02.087Z,12.60
2022-10-06T20:06:30.770Z,12.60
2022-10-06T20:08:58.787Z,12.60
2022-10-06T20:11:26.820Z,12.50
2022-10-06T20:13:54.624Z,12.50
2022-10-06T20:16:22.361Z,12.50
2022-10-06T20:18:50.810Z,12.50
2022-10-06T20:21:31.104Z,12.40
2022-10-06T20:24:01.735Z,12.50
2022-10-06T20:26:41.961Z,12.40
2022-10-06T20:29:12.560Z,12.40
2022-10-06T20:31:46.043Z,12.40
2022-10-06T20:34:16.843Z,12.30
2022-10-06T20:36:44.820Z,12.40
2022-10-06T20:39:34.454Z,12.30
2022-10-06T20:42:03.533Z,12.30
2022-10-06T20:44:31.320Z,12.30
2022-10-06T20:46:59.549Z,12.30
2022-10-06T20:49:27.352Z,12.20
2022-10-06T20:51:55.224Z,12.30
2022-10-06T20:54:28.349Z,12.20
2022-10-06T20:56:59.114Z,12.20
2022-10-06T20:59:30.306Z,12.20
2022-10-06T21:02:00.346Z,12.20
2022-10-06T21:04:29.366Z,12.20
2022-10-06T21:06:58.512Z,12.20
2022-10-06T21:09:28.774Z,12.10
2022-10-06T21:11:57.671Z,12.10
2022-10-06T21:14:25.654Z,12.10
2022-10-06T21:16:53.559Z,12.00
2022-10-06T21:19:21.813Z,12.00
2022-10-06T21:21:53.985Z,11.90
2022-10-06T21:24:21.841Z,11.90
2022-10-06T21:26:52.507Z,11.90
2022-10-06T21:29:22.795Z,11.80
2022-10-06T21:31:50.861Z,11.80
2022-10-06T21:34:20.924Z,11.80
2022-10-06T21:36:48.846Z,11.70
2022-10-06T21:39:17.099Z,11.70
2022-10-06T21:41:45.079Z,11.70
2022-10-06T21:44:15.533Z,11.70
2022-10-06T21:46:51.929Z,11.60
2022-10-06T21:49:24.926Z,11.60
2022-10-06T21:51:55.006Z,11.60
2022-10-06T21:54:24.239Z,11.60
2022-10-06T21:56:52.811Z,11.50
2022-10-06T21:59:20.725Z,11.50
2022-10-06T22:01:51.810Z,11.40
2022-10-06T22:04:19.971Z,11.40
2022-10-06T22:06:51.080Z,11.40
2022-10-06T22:09:20.418Z,11.30
2022-10-06T22:11:49.305Z,11.20
2022-10-06T22:14:18.860Z,11.20
2022-10-06T22:16:46.734Z,11.10
2022-10-06T22:19:16.605Z,11.10
2022-10-06T22:21:46.960Z,11.00
2022-10-06T22:24:20.933Z,11.00
2022-10-06T22:26:49.814Z,11.00
2022-10-06T22:29:19.421Z,11.00
2022-10-06T22:31:48.884Z,10.90
2022-10-06T22:34:19.798Z,10.80
2022-10-06T22:36:47.973Z,10.80
2022-10-06T22:39:16.426Z,10.80
2022-10-06T22:41:45.591Z,10.80
2022-10-06T22:44:13.532Z,10.70
2022-10-06T22:46:41.443Z,10.60
2022-10-06T22:49:09.760Z,10.60
2022-10-06T22:51:37.595Z,10.50
2022-10-06T22:54:05.584Z,10.50
2022-10-06T22:56:34.845Z,10.40
2022-10-06T22:59:02.805Z,10.50
2022-10-06T23:01:31.278Z,10.40
2022-10-06T23:04:00.369Z,10.40
2022-10-06T23:06:31.467Z,10.30
2022-10-06T23:09:00.159Z,10.30
2022-10-06T23:11:28.238Z,10.20
2022-10-06T23:13:56.109Z,10.20
2022-10-06T23:16:24.444Z,10.10
2022-10-06T23:18:52.494Z,10.10
2022-10-06T23:21:24.416Z,10.10
2022-10-06T23:23:55.589Z,10.00
2022-10-06T23:26:24.078Z,9.90
2022-10-06T23:28:57.823Z,9.90
2022-10-06T23:31:26.526Z,9.90
2022-10-06T23:33:55.412Z,9.90
2022-10-06T23:36:23.544Z,9.90
2022-10-06T23:38:51.911Z,9.90
2022-10-06T23:41:20.211Z,9.80
2022-10-06T23:43:48.145Z,9.80
2022-10-06T23:46:16.352Z,9.80
2022-10-06T23:48:44.230Z,9.70
2022-10-06T23:51:14.469Z,9.70
2022-10-06T23:53:43.327Z,9.60
2022-10-06T23:56:11.654Z,9.70
2022-10-06T23:58:39.815Z,9.60
